Latest Weather Observations for Charlton

IDV60801

Issued at 12:02 pm EST Saturday 28 May 2016 (issued every 30 minutes, with the page automatically refreshed every 10 minutes)

About weather observations | Map of weather stations | Latest weather observations for VIC | Other Formats
Station Details ID: 080128 Name: CHARLTON Lat: -36.28 Lon: 143.33 Height: 131.7 m
Data from the previous 72 hours. | See also: Recent months at Charlton
Date/Time
EST
Temp
°C
App
Temp
°C
Dew
Point
Rel
Hum
%
Delta-T
°C
Wind Press
QNH
hPa
Press
MSL
hPa
Rain
since 9 am
mm
Dir
 
Spd
km/h
Gust
km/h
Spd
kts
Gust
kts
28/12:00pm 13.6 9.7 7.2 65 3.1 S 17 28 9 15 1012.8 1012.8 0.0
28/11:30am 13.3 10.3 7.5 68 2.9 S 13 20 7 11 1012.9 1012.9 0.0
28/11:00am 12.7 9.7 7.6 71 2.5 S 13 20 7 11 1013.1 1013.1 0.0
28/10:30am 12.1 9.0 7.4 73 2.3 S 13 22 7 12 1013.1 1013.1 0.0
28/10:00am 11.7 8.9 8.4 80 1.6 S 13 20 7 11 1012.6 1012.6 0.0
28/09:30am 10.9 8.7 7.8 81 1.5 S 9 19 5 10 1012.2 1012.2 0.0
28/09:00am 9.9 7.3 7.8 87 1.0 S 11 19 6 10 1011.5 1011.5 13.6
28/08:30am 8.9 5.8 7.2 89 0.8 S 13 19 7 10 1010.9 1010.9 13.6
28/08:00am 7.8 5.9 7.5 98 0.1 S 7 11 4 6 1010.7 1010.7 13.6
28/07:30am 8.2 6.0 7.9 98 0.1 SSW 9 13 5 7 1010.5 1010.5 13.6
28/07:00am 8.5 6.8 7.7 95 0.4 S 6 9 3 5 1009.8 1009.9 13.6
28/06:30am 9.1 6.6 8.2 94 0.4 SE 11 17 6 9 1009.0 1009.0 13.6
28/06:00am 9.2 5.0 8.1 93 0.5 SSE 20 30 11 16 1008.8 1008.8 13.6
28/05:30am 9.3 5.8 8.8 97 0.2 SSE 17 26 9 14 1008.3 1008.3 13.6
28/05:00am 9.4 7.6 9.3 99 0.0 S 9 17 5 9 1008.0 1008.0 13.6
28/04:30am 9.4 6.8 9.3 99 0.0 SSE 13 17 7 9 1007.6 1007.6 13.6
28/04:00am 9.5 7.7 9.4 99 0.1 S 9 13 5 7 1007.2 1007.2 13.6
28/03:30am 9.4 6.8 9.3 99 0.0 SSE 13 19 7 10 1006.9 1006.9 13.4
28/03:00am 9.6 7.4 9.5 99 0.1 SSE 11 15 6 8 1006.8 1006.8 13.4
28/02:30am 9.6 7.8 9.5 99 0.1 SE 9 13 5 7 1006.5 1006.5 13.4
28/02:00am 9.7 8.3 9.6 99 0.1 SE 7 11 4 6 1006.3 1006.3 13.4
28/01:30am 9.7 7.9 9.6 99 0.1 ESE 9 11 5 6 1006.1 1006.1 13.4
28/01:00am 9.7 8.3 9.6 99 0.1 SE 7 9 4 5 1006.0 1006.0 13.4
28/12:30am 9.6 8.4 9.5 99 0.1 ESE 6 9 3 5 1006.1 1006.1 13.4
28/12:00am 9.7 8.3 9.4 98 0.2 E 7 9 4 5 1006.2 1006.2 13.4
 
Date/Time
EST
Temp
°C
App
Temp
°C
Dew
Point
Rel
Hum
%
Delta-T
°C
Wind Press
QNH
hPa
Press
MSL
hPa
Rain
since 9 am
mm
Dir
 
Spd
km/h
Gust
km/h
Spd
kts
Gust
kts
27/11:30pm 9.7 8.3 9.6 99 0.1 ESE 7 11 4 6 1006.0 1006.0 13.4
27/11:00pm 10.0 8.9 9.9 99 0.1 E 6 7 3 4 1006.0 1006.0 13.4
27/10:30pm 9.7 8.3 9.6 99 0.1 ENE 7 9 4 5 1006.1 1006.1 13.4
27/10:00pm 9.9 9.1 9.8 99 0.1 NE 4 7 2 4 1006.3 1006.3 13.4
27/09:30pm 10.1 9.0 10.0 99 0.1 NNE 6 7 3 4 1006.4 1006.4 13.4
27/09:00pm 10.0 8.7 9.9 99 0.1 NE 7 9 4 5 1006.1 1006.1 13.4
27/08:30pm 9.8 7.7 9.7 99 0.1 NE 11 13 6 7 1006.0 1006.0 13.2
27/08:00pm 9.7 7.9 9.6 99 0.1 ENE 9 13 5 7 1006.1 1006.1 12.8
27/07:30pm 9.7 8.2 9.1 96 0.3 NNE 7 13 4 7 1006.1 1006.1 10.8
27/07:00pm 10.4 8.7 9.9 97 0.3 NE 9 11 5 6 1005.8 1005.8 10.2
27/06:30pm 11.2 10.2 11.0 99 0.1 N 7 13 4 7 1006.0 1006.0 7.8
27/06:00pm 11.6 10.3 11.4 99 0.1 NNE 9 15 5 8 1005.9 1005.9 4.6
27/05:30pm 11.5 10.2 11.3 99 0.1 NE 9 13 5 7 1005.5 1005.5 3.0
27/05:00pm 11.5 10.2 11.2 98 0.2 NE 9 15 5 8 1005.4 1005.4 3.0
27/04:30pm 11.7 10.0 11.1 96 0.3 NE 11 15 6 8 1005.5 1005.5 2.8
27/04:00pm 12.3 10.7 10.2 87 1.1 NE 9 15 5 8 1005.7 1005.7 0.4
27/03:30pm 12.8 11.0 9.4 80 1.7 NE 9 11 5 6 1005.6 1005.6 0.0
27/03:00pm 13.0 10.7 8.9 76 2.1 NNE 11 17 6 9 1005.8 1005.8 0.0
27/02:30pm 12.9 10.6 9.0 77 2.0 NNE 11 17 6 9 1006.0 1006.0 0.0
27/02:00pm 12.6 10.8 9.4 81 1.6 N 9 15 5 8 1006.5 1006.5 0.0
27/01:30pm 13.4 11.6 9.6 78 2.0 N 9 17 5 9 1006.8 1006.8 0.0
27/01:00pm 13.0 11.1 8.9 76 2.1 N 9 15 5 8 1007.3 1007.3 0.0
27/12:30pm 12.9 11.5 9.7 81 1.6 NNW 7 11 4 6 1007.8 1007.8 0.0
27/12:00pm 11.8 10.2 8.8 82 1.5 NNW 7 11 4 6 1008.2 1008.2 0.0
27/11:30am 10.8 9.3 9.1 89 0.9 WNW 7 9 4 5 1008.9 1008.9 0.0
27/11:00am 9.8 8.3 9.0 95 0.4 NW 7 9 4 5 1009.3 1009.4 0.0
27/10:30am 8.7 7.3 8.7 100 0.0 WNW 6 7 3 4 1009.6 1009.7 0.0
27/10:00am 7.4 5.5 7.4 100 0.0 NW 7 9 4 5 1009.8 1009.9 0.0
27/09:30am 6.5 4.6 6.5 100 0.0 NW 6 7 3 4 1009.8 1009.9 0.0
27/09:00am 5.9 4.9 5.8 99 0.0 CALM 0 0 0 0 1009.7 1009.8 0.8
27/08:30am 5.6 4.6 5.5 99 0.0 CALM 0 0 0 0 1009.6 1009.7 0.6
27/08:00am 4.9 3.7 4.8 99 0.0 CALM 0 0 0 0 1009.6 1009.7 0.6
27/07:30am 4.4 3.1 4.3 99 0.0 CALM 0 0 0 0 1009.5 1009.6 0.6
27/07:00am 5.6 2.9 5.5 99 0.0 WSW 9 13 5 7 1009.4 1009.5 0.6
27/06:30am 5.3 2.9 5.2 99 0.0 W 7 11 4 6 1009.1 1009.1 0.6
27/06:00am 5.3 2.9 5.2 99 0.0 WNW 7 9 4 5 1009.0 1009.0 0.6
27/05:30am 5.6 3.3 5.5 99 0.0 WNW 7 11 4 6 1008.9 1008.9 0.6
27/05:00am 6.0 3.4 5.9 99 0.0 WNW 9 17 5 9 1009.0 1009.0 0.6
27/04:30am 5.9 2.9 5.8 99 0.0 WNW 11 13 6 7 1008.9 1008.9 0.6
27/04:00am 5.6 2.9 5.5 99 0.0 WNW 9 11 5 6 1008.7 1008.7 0.6
27/03:30am 5.6 2.9 5.5 99 0.0 WNW 9 11 5 6 1008.9 1008.9 0.6
27/03:00am 5.8 3.1 5.7 99 0.0 WNW 9 11 5 6 1009.1 1009.1 0.6
27/02:30am 6.1 3.8 5.8 98 0.1 NW 7 9 4 5 1009.2 1009.2 0.6
27/02:00am 6.9 4.7 6.3 96 0.3 WNW 7 11 4 6 1009.2 1009.2 0.6
27/01:30am 7.6 5.2 7.0 96 0.3 W 9 13 5 7 1009.0 1009.0 0.6
27/01:00am 7.4 5.0 7.0 97 0.2 W 9 13 5 7 1009.0 1009.0 0.6
27/12:30am 7.0 4.5 6.4 96 0.3 WNW 9 11 5 6 1009.3 1009.4 0.6
27/12:00am 7.6 5.5 6.7 94 0.4 NW 7 11 4 6 1009.4 1009.5 0.6
 
Date/Time
EST
Temp
°C
App
Temp
°C
Dew
Point
Rel
Hum
%
Delta-T
°C
Wind Press
QNH
hPa
Press
MSL
hPa
Rain
since 9 am
mm
Dir
 
Spd
km/h
Gust
km/h
Spd
kts
Gust
kts
26/11:30pm 8.3 6.3 7.1 92 0.6 SW 7 11 4 6 1009.1 1009.1 0.6
26/11:00pm 8.2 5.8 7.1 93 0.5 WSW 9 15 5 8 1009.2 1009.2 0.6
26/10:30pm 8.1 6.1 6.9 92 0.6 WSW 7 9 4 5 1009.2 1009.2 0.6
26/10:00pm 8.3 6.3 7.2 93 0.5 WSW 7 13 4 7 1009.3 1009.4 0.6
26/09:30pm 8.3 6.4 6.9 91 0.7 WSW 6 9 3 5 1009.1 1009.1 0.6
26/09:00pm 8.7 6.9 7.0 89 0.8 SW 6 9 3 5 1008.9 1008.9 0.6
26/08:30pm 9.1 7.1 7.1 87 0.9 WSW 7 11 4 6 1008.8 1008.8 0.6
26/08:00pm 9.5 7.1 6.9 84 1.2 SW 9 11 5 6 1008.6 1008.6 0.6
26/07:30pm 10.0 7.7 7.3 83 1.3 WSW 9 15 5 8 1008.4 1008.4 0.6
26/07:00pm 10.5 8.6 7.7 83 1.4 SW 7 11 4 6 1008.1 1008.1 0.6
26/06:30pm 11.1 8.8 7.4 78 1.8 WSW 9 15 5 8 1007.7 1007.7 0.6
26/06:00pm 11.8 9.6 7.7 76 2.0 WSW 9 17 5 9 1007.3 1007.3 0.6
26/05:30pm 12.1 9.5 7.8 75 2.1 SW 11 17 6 9 1006.7 1006.7 0.6
26/05:00pm 12.6 9.6 7.9 73 2.3 WSW 13 19 7 10 1006.2 1006.2 0.6
26/04:30pm 13.4 11.0 8.7 73 2.4 WSW 11 20 6 11 1006.0 1006.0 0.6
26/04:00pm 13.8 10.8 7.8 67 3.0 SW 13 24 7 13 1005.8 1005.8 0.6
26/03:30pm 14.2 10.6 8.2 67 3.0 WSW 17 26 9 14 1005.6 1005.6 0.6
26/03:00pm 13.9 11.0 8.3 69 2.8 SW 13 26 7 14 1005.3 1005.3 0.6
26/02:30pm 13.3 10.7 9.4 77 2.0 SSW 13 22 7 12 1005.0 1005.0 0.6
26/02:00pm 13.5 11.7 10.9 84 1.4 WSW 11 17 6 9 1004.9 1004.9 0.4
26/01:30pm 12.9 9.9 9.2 78 1.9 SW 15 20 8 11 1004.9 1004.9 0.2
26/01:00pm 12.0 8.8 9.9 87 1.1 SW 17 24 9 13 1004.8 1004.8 0.2
26/12:30pm 14.3 10.9 9.3 72 2.6 WSW 17 28 9 15 1004.6 1004.6 0.0
26/12:00pm 13.9 10.2 9.3 74 2.4 WSW 19 32 10 17 1004.8 1004.8 0.0
26/11:30am 13.5 9.7 9.9 79 1.9 WSW 20 32 11 17 1005.0 1005.0 0.0
26/11:00am 13.1 9.4 10.1 82 1.6 WSW 20 33 11 18 1005.2 1005.2 0.0
26/10:30am 12.9 9.4 11.0 88 1.0 W 20 33 11 18 1005.3 1005.3 0.0
26/10:00am 12.7 10.0 11.6 93 0.6 WSW 17 26 9 14 1005.3 1005.3 0.0
26/09:30am 11.9 9.2 11.7 99 0.1 WSW 17 28 9 15 1005.2 1005.2 0.0
26/09:00am 11.4 9.4 11.4 100 0.0 WSW 13 20 7 11 1004.9 1004.9 18.2
26/08:30am 11.4 9.0 11.4 100 0.0 WSW 15 26 8 14 1004.7 1004.7 18.2
26/08:00am 11.6 9.6 11.6 100 0.0 W 13 24 7 13 1004.3 1004.3 18.2
26/07:30am 11.5 9.9 11.5 100 0.0 W 11 19 6 10 1004.1 1004.1 18.2
26/07:00am 11.4 9.8 11.4 100 0.0 W 11 19 6 10 1004.0 1004.0 18.2
26/06:30am 11.2 8.7 11.2 100 0.0 WNW 15 20 8 11 1004.1 1004.1 18.0
26/06:00am 11.1 9.4 11.1 100 0.0 WNW 11 17 6 9 1004.0 1004.0 18.0
26/05:30am 11.0 9.2 11.0 100 0.0 NW 11 19 6 10 1004.2 1004.2 18.0
26/05:00am 10.9 8.7 10.9 100 0.0 NW 13 24 7 13 1004.3 1004.3 18.0
26/04:30am 10.7 8.9 10.7 100 0.0 NW 11 20 6 11 1004.3 1004.3 18.0
26/04:00am 10.5 8.2 10.5 100 0.0 NW 13 24 7 13 1004.7 1004.7 17.6
26/03:30am 10.3 8.0 10.3 100 0.0 NNW 13 20 7 11 1004.9 1004.9 17.4
26/03:00am 10.2 8.2 10.2 100 0.0 N 11 19 6 10 1005.0 1005.0 17.0
26/02:30am 10.2 8.6 10.2 100 0.0 N 9 15 5 8 1005.4 1005.4 16.6
26/02:00am 10.1 8.8 10.1 100 0.0 N 7 9 4 5 1005.8 1005.8 16.2
26/01:30am 10.0 8.3 10.0 100 0.0 N 9 13 5 7 1006.2 1006.2 15.2
26/01:00am 10.0 8.3 10.0 100 0.0 N 9 15 5 8 1006.5 1006.5 14.2
26/12:30am 10.0 8.0 10.0 100 0.0 N 11 19 6 10 1006.9 1006.9 13.6
26/12:00am 9.9 7.8 9.9 100 0.0 N 11 17 6 9 1007.2 1007.2 13.0
 
Date/Time
EST
Temp
°C
App
Temp
°C
Dew
Point
Rel
Hum
%
Delta-T
°C
Wind Press
QNH
hPa
Press
MSL
hPa
Rain
since 9 am
mm
Dir
 
Spd
km/h
Gust
km/h
Spd
kts
Gust
kts
25/11:30pm 9.8 7.3 9.7 99 0.1 N 13 17 7 9 1007.6 1007.6 12.6
25/11:00pm 9.7 7.2 9.6 99 0.1 N 13 19 7 10 1008.0 1008.0 11.8
25/10:30pm 9.7 7.2 9.6 99 0.1 N 13 19 7 10 1008.2 1008.2 10.8
25/10:00pm 9.6 6.7 9.5 99 0.1 N 15 22 8 12 1008.6 1008.6 9.8
25/09:30pm 9.6 6.7 9.5 99 0.1 N 15 24 8 13 1008.7 1008.7 9.0
25/09:00pm 9.7 6.8 9.6 99 0.1 N 15 24 8 13 1009.2 1009.2 6.6
25/08:30pm 9.8 7.3 9.7 99 0.1 NNE 13 22 7 12 1009.0 1009.0 6.0
25/08:00pm 9.9 7.0 9.6 98 0.2 NNE 15 22 8 12 1009.2 1009.2 5.2
25/07:30pm 10.0 7.0 9.4 96 0.3 NNE 15 24 8 13 1009.4 1009.5 4.6
25/07:00pm 10.2 7.7 9.6 96 0.3 NNE 13 24 7 13 1009.6 1009.7 4.2
25/06:30pm 10.1 7.6 9.6 97 0.3 N 13 20 7 11 1009.9 1010.0 4.2
25/06:00pm 10.2 7.2 9.4 95 0.4 N 15 24 8 13 1010.1 1010.2 4.2
25/05:30pm 10.3 6.5 9.2 93 0.5 N 19 32 10 17 1010.6 1010.6 4.2
25/05:00pm 10.3 7.4 9.7 96 0.3 NNE 15 22 8 12 1010.1 1010.2 4.2
25/04:30pm 10.2 8.1 9.7 97 0.3 N 11 20 6 11 1010.8 1010.8 4.2
25/04:00pm 10.4 8.0 10.1 98 0.2 NNE 13 22 7 12 1010.6 1010.6 4.2
25/03:30pm 10.3 7.5 10.0 98 0.2 N 15 20 8 11 1011.0 1011.0 4.2
25/03:00pm 10.4 8.0 10.1 98 0.2 N 13 24 7 13 1011.4 1011.4 3.8
25/02:30pm 10.5 7.7 9.9 96 0.3 N 15 20 8 11 1011.9 1011.9 3.0
25/02:00pm 10.6 8.1 9.8 95 0.4 NNW 13 20 7 11 1012.3 1012.3 2.4
25/01:30pm 10.6 8.0 9.2 91 0.7 NNW 13 20 7 11 1012.6 1012.6 1.6
25/01:00pm 11.4 8.4 9.1 86 1.2 NNW 15 24 8 13 1012.8 1012.8 0.6
25/12:30pm 12.0 8.1 8.7 80 1.7 NNW 19 30 10 16 1013.1 1013.1 0.2

Other Formats:

Comma delimited format used in spreadsheet applications
http://www.bom.gov.au/fwo/IDV60801/IDV60801.94839.axf

JavaScript Object Notation format (JSON) in row-major order
http://www.bom.gov.au/fwo/IDV60801/IDV60801.94839.json